Time;durP1;ratioP1;P1;durP2;ratioP2;P2;SDS_P1;SDS_P2;PMS_P1;PMS_P2;Temp;Humidity;BMP_temperature;BMP_pressure;BME280_temperature;BME280_humidity;BME280_pressure;Samples;Min_cycle;Max_cycle;Signal;HPM_P1;HPM_P2
2024/02/21 00:01:43;;;;;;;24.13;4.35;;;8.40;99.90;;;;;;5107233;28;20024;-47
2024/02/21 00:04:08;;;;;;;24.27;6.55;;;8.40;99.90;;;;;;5107505;28;20112;-47
2024/02/21 00:06:34;;;;;;;12.75;4.25;;;8.40;99.90;;;;;;5107199;28;20194;-49
2024/02/21 00:08:59;;;;;;;15.55;6.00;;;8.50;99.90;;;;;;5107171;28;20043;-47
2024/02/21 00:11:25;;;;;;;13.77;5.32;;;8.50;99.90;;;;;;5107324;28;20020;-47
2024/02/21 00:13:51;;;;;;;5.63;2.63;;;8.50;99.90;;;;;;5106082;28;20107;-50
2024/02/21 00:16:17;;;;;;;4.82;2.60;;;8.40;99.90;;;;;;5107198;28;20039;-47
2024/02/21 00:18:43;;;;;;;4.50;2.28;;;8.50;99.90;;;;;;5107119;28;20085;-48
2024/02/21 00:21:09;;;;;;;5.28;2.58;;;8.40;99.90;;;;;;5106953;28;20051;-48
2024/02/21 00:23:34;;;;;;;5.47;2.47;;;8.40;99.90;;;;;;5106779;28;20052;-50
2024/02/21 00:26:00;;;;;;;5.15;2.70;;;8.40;99.90;;;;;;5106936;28;20159;-46
2024/02/21 00:28:26;;;;;;;5.80;2.80;;;8.50;99.90;;;;;;5106861;28;20297;-48
2024/02/21 00:30:53;;;;;;;6.30;2.78;;;8.50;99.90;;;;;;5106458;28;20038;-46
2024/02/21 00:33:19;;;;;;;8.50;3.50;;;8.50;99.90;;;;;;5107162;28;20220;-49
2024/02/21 00:35:44;;;;;;;6.55;3.50;;;8.50;99.90;;;;;;5105750;28;20040;-47
2024/02/21 00:38:10;;;;;;;9.88;4.05;;;8.60;99.90;;;;;;5105735;28;20073;-48
2024/02/21 00:40:36;;;;;;;17.65;7.05;;;8.70;99.90;;;;;;5106684;28;20320;-47
2024/02/21 00:43:02;;;;;;;25.48;10.77;;;8.70;99.90;;;;;;5106420;28;20044;-48
2024/02/21 00:45:28;;;;;;;9.50;4.28;;;8.70;99.90;;;;;;5106491;28;20024;-47
2024/02/21 00:47:54;;;;;;;7.80;3.92;;;8.70;99.90;;;;;;5106515;28;20246;-47
2024/02/21 00:50:19;;;;;;;9.63;3.95;;;8.70;99.90;;;;;;5106597;28;20138;-49
2024/02/21 00:52:45;;;;;;;5.95;3.00;;;8.80;99.90;;;;;;5106571;28;20019;-48
2024/02/21 00:55:11;;;;;;;7.10;3.22;;;8.80;99.90;;;;;;5106429;28;20059;-47
2024/02/21 00:57:36;;;;;;;5.72;2.70;;;8.90;99.90;;;;;;5106492;28;20304;-47
2024/02/21 01:00:05;;;;;;;6.55;2.75;;;8.90;99.90;;;;;;5106384;28;20079;-50
2024/02/21 01:02:31;;;;;;;6.75;2.60;;;9.00;99.90;;;;;;5105906;28;20036;-46
2024/02/21 01:04:57;;;;;;;4.72;2.15;;;9.10;99.90;;;;;;5105952;28;20093;-47
2024/02/21 01:07:24;;;;;;;5.25;2.40;;;9.20;99.90;;;;;;5106226;28;20023;-47
2024/02/21 01:09:51;;;;;;;5.57;2.42;;;9.20;99.90;;;;;;5106284;28;20028;-49
2024/02/21 01:12:16;;;;;;;3.92;1.77;;;9.30;99.90;;;;;;5106195;28;20028;-48
2024/02/21 01:14:42;;;;;;;1.80;1.00;;;9.50;99.90;;;;;;5106815;28;20012;-48
2024/02/21 01:17:08;;;;;;;6.65;1.60;;;9.90;99.90;;;;;;5105005;28;20298;-49
2024/02/21 01:19:33;;;;;;;4.85;1.75;;;10.00;99.90;;;;;;5105938;28;20032;-46
2024/02/21 01:21:59;;;;;;;4.22;2.25;;;10.00;99.90;;;;;;5105843;28;20284;-48
2024/02/21 01:24:25;;;;;;;2.85;1.35;;;10.10;99.90;;;;;;5106025;28;20292;-47
2024/02/21 01:26:50;;;;;;;3.63;1.83;;;10.10;99.90;;;;;;5105808;28;20039;-46
2024/02/21 01:29:16;;;;;;;3.42;1.60;;;10.10;99.90;;;;;;5105948;28;20062;-46
2024/02/21 01:31:42;;;;;;;1.90;1.00;;;10.20;99.90;;;;;;5106003;28;20341;-47
2024/02/21 01:34:07;;;;;;;10.07;2.47;;;10.20;99.90;;;;;;5105585;28;20189;-47
2024/02/21 01:36:33;;;;;;;2.40;1.33;;;10.20;99.90;;;;;;5105938;28;20100;-47
2024/02/21 01:38:59;;;;;;;1.63;1.00;;;10.20;99.90;;;;;;5105560;28;20087;-46
2024/02/21 01:41:24;;;;;;;5.13;1.20;;;10.20;99.90;;;;;;5105635;28;20095;-48
2024/02/21 01:43:50;;;;;;;1.70;1.10;;;10.20;99.90;;;;;;5105760;28;20043;-46
2024/02/21 01:46:16;;;;;;;1.67;1.10;;;10.20;99.90;;;;;;5105761;28;20062;-47
2024/02/21 01:48:41;;;;;;;0.93;0.80;;;10.20;99.90;;;;;;5106002;28;20031;-46
2024/02/21 01:51:07;;;;;;;1.38;0.88;;;10.30;99.90;;;;;;5109948;28;20042;-49
2024/02/21 01:53:37;;;;;;;1.85;1.10;;;10.30;99.90;;;;;;5109751;28;20285;-48
2024/02/21 01:56:05;;;;;;;1.45;0.82;;;10.30;99.90;;;;;;5091966;28;20024;-47
2024/02/21 01:58:31;;;;;;;1.75;0.82;;;10.30;99.90;;;;;;5108827;28;20051;-47
2024/02/21 02:00:56;;;;;;;0.68;0.68;;;10.30;99.90;;;;;;5108886;28;20032;-47
2024/02/21 02:03:22;;;;;;;0.65;0.65;;;10.30;99.90;;;;;;5109579;28;20084;-46
2024/02/21 02:05:49;;;;;;;1.88;0.80;;;10.20;99.90;;;;;;5109216;28;20107;-46
2024/02/21 02:08:23;;;;;;;2.05;0.60;;;10.20;99.90;;;;;;5109691;28;20024;-47
2024/02/21 02:10:49;;;;;;;1.40;0.60;;;10.20;99.90;;;;;;5109767;28;20020;-49
2024/02/21 02:13:15;;;;;;;1.23;0.55;;;10.20;99.90;;;;;;5109347;28;20189;-46
2024/02/21 02:15:48;;;;;;;0.50;0.50;;;10.20;99.90;;;;;;5109407;28;20032;-47
2024/02/21 02:18:14;;;;;;;1.05;0.63;;;10.20;99.90;;;;;;5109581;28;20027;-48
2024/02/21 02:20:40;;;;;;;0.50;0.50;;;10.20;99.90;;;;;;5109007;28;20036;-46
2024/02/21 02:23:32;;;;;;;0.50;0.50;;;10.20;99.90;;;;;;5109464;28;20205;-48
2024/02/21 02:25:57;;;;;;;0.60;0.60;;;10.20;99.90;;;;;;5109284;28;20032;-47
2024/02/21 02:28:23;;;;;;;0.63;0.60;;;10.20;99.90;;;;;;5109290;28;20016;-46
2024/02/21 02:30:49;;;;;;;0.45;0.45;;;10.30;99.90;;;;;;5108989;28;20024;-47
2024/02/21 02:33:15;;;;;;;0.50;0.50;;;10.30;99.90;;;;;;5109016;28;20154;-46
2024/02/21 02:35:40;;;;;;;2.70;0.60;;;10.30;99.90;;;;;;5091030;28;20032;-46
2024/02/21 02:38:06;;;;;;;0.50;0.50;;;10.30;99.90;;;;;;5108761;28;20032;-46
2024/02/21 02:40:33;;;;;;;0.40;0.40;;;10.30;99.90;;;;;;5109085;28;20039;-46
2024/02/21 02:42:59;;;;;;;0.60;0.60;;;10.30;99.90;;;;;;5108919;28;20032;-47
2024/02/21 02:45:26;;;;;;;1.55;0.65;;;10.30;99.90;;;;;;5108787;28;20264;-46
2024/02/21 02:47:52;;;;;;;0.50;0.50;;;10.30;99.90;;;;;;5108814;28;20024;-47
2024/02/21 02:50:18;;;;;;;0.50;0.50;;;10.30;99.90;;;;;;5108877;28;20155;-49
2024/02/21 02:52:43;;;;;;;0.43;0.43;;;10.30;99.90;;;;;;5108949;28;20038;-46
2024/02/21 02:55:09;;;;;;;0.57;0.50;;;10.30;99.90;;;;;;5108533;28;20032;-46
2024/02/21 02:57:35;;;;;;;0.57;0.50;;;10.30;99.90;;;;;;5108493;28;20084;-49
2024/02/21 03:00:00;;;;;;;0.88;0.50;;;10.30;99.90;;;;;;5107997;28;20206;-45
2024/02/21 03:02:26;;;;;;;0.45;0.45;;;10.30;99.90;;;;;;5108072;28;20043;-47
2024/02/21 03:04:51;;;;;;;0.40;0.40;;;10.30;99.90;;;;;;5090316;28;20032;-48
2024/02/21 03:07:17;;;;;;;1.13;0.50;;;10.30;99.90;;;;;;5108726;28;20027;-47
2024/02/21 03:09:43;;;;;;;0.40;0.40;;;10.20;99.90;;;;;;5107998;28;20107;-46
2024/02/21 03:12:09;;;;;;;2.05;0.50;;;10.20;99.90;;;;;;5108568;28;20078;-46
2024/02/21 03:14:35;;;;;;;0.40;0.40;;;10.20;99.90;;;;;;5108448;28;20031;-46
2024/02/21 03:17:01;;;;;;;0.40;0.40;;;10.20;99.90;;;;;;5108022;28;20099;-48
2024/02/21 03:19:26;;;;;;;0.50;0.50;;;10.20;99.90;;;;;;5108205;28;20024;-46
2024/02/21 03:21:52;;;;;;;0.40;0.40;;;10.20;99.90;;;;;;5107991;28;20186;-45
2024/02/21 03:24:21;;;;;;;0.50;0.50;;;10.20;99.90;;;;;;5108234;28;20375;-45
2024/02/21 03:26:47;;;;;;;0.47;0.45;;;10.20;99.90;;;;;;5107567;28;20081;-45
2024/02/21 03:29:14;;;;;;;0.50;0.50;;;10.10;99.90;;;;;;5107207;28;20050;-48
2024/02/21 03:31:40;;;;;;;0.40;0.40;;;10.10;99.90;;;;;;5107072;28;20111;-45
2024/02/21 03:34:05;;;;;;;0.40;0.40;;;10.10;99.90;;;;;;5108101;28;20285;-46
2024/02/21 03:36:31;;;;;;;1.08;0.50;;;10.10;99.90;;;;;;5108023;28;20273;-46
2024/02/21 03:38:57;;;;;;;0.40;0.40;;;10.10;99.90;;;;;;5107630;28;20032;-48
2024/02/21 03:41:22;;;;;;;0.50;0.50;;;10.10;99.90;;;;;;5107697;28;20285;-46
2024/02/21 03:43:48;;;;;;;0.73;0.50;;;10.10;99.90;;;;;;5107761;28;20035;-46
2024/02/21 03:46:15;;;;;;;2.05;0.60;;;10.10;99.90;;;;;;5107644;28;20056;-46
2024/02/21 03:48:41;;;;;;;1.75;0.50;;;10.10;99.90;;;;;;5107748;28;20032;-49
2024/02/21 03:51:06;;;;;;;1.80;0.68;;;10.10;99.90;;;;;;5107449;28;20024;-45
2024/02/21 03:53:32;;;;;;;1.38;0.50;;;10.10;99.90;;;;;;5106453;28;20036;-46
2024/02/21 03:56:02;;;;;;;0.55;0.50;;;10.10;99.90;;;;;;5107513;28;20035;-45
2024/02/21 03:58:28;;;;;;;0.73;0.52;;;10.00;99.90;;;;;;5107562;28;20028;-46
2024/02/21 04:00:54;;;;;;;0.55;0.50;;;10.00;99.90;;;;;;5107327;28;20354;-46
2024/02/21 04:03:19;;;;;;;0.50;0.50;;;10.00;99.90;;;;;;5107301;28;20074;-46
2024/02/21 04:05:45;;;;;;;0.50;0.50;;;10.00;99.90;;;;;;5107521;28;20068;-45
2024/02/21 04:08:11;;;;;;;0.47;0.47;;;10.00;99.90;;;;;;5107390;28;20028;-46
2024/02/21 04:10:37;;;;;;;0.52;0.50;;;10.00;99.90;;;;;;5107298;28;20030;-46
2024/02/21 04:13:03;;;;;;;0.50;0.50;;;10.00;99.90;;;;;;5107125;28;20051;-46
2024/02/21 04:15:29;;;;;;;1.08;0.70;;;10.00;99.90;;;;;;5107159;28;20089;-48
2024/02/21 04:17:55;;;;;;;2.05;0.40;;;10.00;99.90;;;;;;5106998;28;20028;-45
2024/02/21 04:20:20;;;;;;;0.40;0.40;;;9.90;99.90;;;;;;5107086;28;20077;-46
2024/02/21 04:22:46;;;;;;;0.40;0.40;;;9.90;99.90;;;;;;5106599;28;20071;-46
2024/02/21 04:25:12;;;;;;;0.80;0.50;;;9.90;99.90;;;;;;5106972;28;20035;-47
2024/02/21 04:27:38;;;;;;;1.42;0.50;;;9.90;99.90;;;;;;5106896;28;20035;-46
2024/02/21 04:30:05;;;;;;;1.20;0.60;;;9.90;99.90;;;;;;5106916;28;20103;-46
2024/02/21 04:32:30;;;;;;;2.83;0.60;;;9.90;99.90;;;;;;5106839;28;20016;-45
2024/02/21 04:34:56;;;;;;;0.52;0.50;;;9.80;99.90;;;;;;5106132;28;20035;-46
2024/02/21 04:37:21;;;;;;;0.90;0.50;;;9.80;99.90;;;;;;5106736;28;20163;-46
2024/02/21 04:39:48;;;;;;;2.20;0.50;;;9.80;99.90;;;;;;5088608;28;20024;-47
2024/02/21 04:42:14;;;;;;;0.50;0.50;;;9.80;99.90;;;;;;5106655;28;20038;-45
2024/02/21 04:44:40;;;;;;;2.20;0.57;;;9.80;99.90;;;;;;5106635;28;20048;-47
2024/02/21 04:47:06;;;;;;;0.73;0.50;;;9.80;99.90;;;;;;5106403;28;20300;-46
2024/02/21 04:49:32;;;;;;;0.95;0.50;;;9.70;99.90;;;;;;5105579;28;20032;-45
2024/02/21 04:51:57;;;;;;;1.70;0.60;;;9.80;99.90;;;;;;5106511;28;20028;-46
2024/02/21 04:54:23;;;;;;;3.10;0.60;;;9.70;99.90;;;;;;5106422;28;20020;-46
2024/02/21 04:56:49;;;;;;;1.40;0.50;;;9.70;99.90;;;;;;5106025;28;20265;-48
2024/02/21 04:59:14;;;;;;;0.57;0.40;;;9.70;99.90;;;;;;5106162;28;20043;-45
2024/02/21 05:01:40;;;;;;;3.13;0.73;;;9.70;99.90;;;;;;5106291;28;20032;-45
2024/02/21 05:04:06;;;;;;;1.00;0.60;;;9.70;99.90;;;;;;5106554;28;20063;-45
2024/02/21 05:06:31;;;;;;;0.40;0.40;;;9.70;99.90;;;;;;5106226;28;20047;-46
2024/02/21 05:08:57;;;;;;;1.40;0.57;;;9.70;99.90;;;;;;5106434;28;20028;-45
2024/02/21 05:11:24;;;;;;;0.57;0.50;;;9.70;99.90;;;;;;5106267;28;20016;-48
2024/02/21 05:13:50;;;;;;;1.17;0.60;;;9.70;99.90;;;;;;5106097;28;20027;-46
2024/02/21 05:16:16;;;;;;;0.50;0.50;;;9.70;99.90;;;;;;5106251;28;20070;-46
2024/02/21 05:18:42;;;;;;;0.40;0.40;;;9.60;99.90;;;;;;5106130;28;20024;-47
2024/02/21 05:21:08;;;;;;;2.15;0.68;;;9.60;99.90;;;;;;5106215;28;20035;-49
2024/02/21 05:23:33;;;;;;;2.05;0.60;;;9.60;99.90;;;;;;5105130;28;20109;-46
2024/02/21 05:25:59;;;;;;;0.50;0.50;;;9.50;99.90;;;;;;5105913;28;20028;-47
2024/02/21 05:28:25;;;;;;;2.92;0.70;;;9.60;99.90;;;;;;5105990;28;20281;-48
2024/02/21 05:30:50;;;;;;;1.10;0.50;;;9.60;99.90;;;;;;5105636;28;20031;-46
2024/02/21 05:33:21;;;;;;;1.60;0.60;;;9.50;99.90;;;;;;5105697;28;20043;-47
2024/02/21 05:35:48;;;;;;;1.08;0.50;;;9.50;99.90;;;;;;5105913;28;20244;-46
2024/02/21 05:38:14;;;;;;;0.90;0.50;;;9.50;99.90;;;;;;5105892;28;20095;-45
2024/02/21 05:40:40;;;;;;;2.45;1.05;;;9.50;99.90;;;;;;5105901;28;20027;-45
2024/02/21 05:43:06;;;;;;;0.50;0.50;;;9.50;99.90;;;;;;5105734;28;20042;-46
2024/02/21 05:45:32;;;;;;;1.42;0.70;;;9.50;99.90;;;;;;5105563;28;20024;-46
2024/02/21 05:47:57;;;;;;;3.25;0.80;;;9.50;99.90;;;;;;5105739;28;20158;-46
2024/02/21 05:50:23;;;;;;;5.22;1.15;;;9.50;99.90;;;;;;5105132;28;20038;-45
2024/02/21 05:52:51;;;;;;;3.85;0.73;;;9.50;99.90;;;;;;5105304;28;20032;-47
2024/02/21 05:55:17;;;;;;;4.25;0.82;;;9.50;99.90;;;;;;5105587;28;20069;-45
2024/02/21 05:57:43;;;;;;;1.77;0.60;;;9.50;99.90;;;;;;5105528;28;20060;-46
2024/02/21 06:00:09;;;;;;;2.38;0.77;;;9.40;99.90;;;;;;5105677;28;20028;-49
2024/02/21 06:02:34;;;;;;;3.58;0.80;;;9.40;99.90;;;;;;5105723;28;20211;-47
2024/02/21 06:05:00;;;;;;;0.98;0.60;;;9.40;99.90;;;;;;5105680;28;20032;-46
2024/02/21 06:07:26;;;;;;;3.30;0.80;;;9.40;99.90;;;;;;5105500;28;20264;-47
2024/02/21 06:09:51;;;;;;;3.97;0.85;;;9.40;99.90;;;;;;5105189;28;20044;-46
2024/02/21 06:12:17;;;;;;;2.53;1.00;;;9.30;99.90;;;;;;5105639;28;20173;-46
2024/02/21 06:14:42;;;;;;;3.35;0.68;;;9.40;99.90;;;;;;5105543;28;20027;-45
2024/02/21 06:17:08;;;;;;;2.88;0.95;;;9.30;99.90;;;;;;5105242;28;20028;-45
2024/02/21 06:19:34;;;;;;;7.75;1.20;;;9.30;99.90;;;;;;5105261;28;20335;-45
2024/02/21 06:21:59;;;;;;;5.93;0.90;;;9.30;99.90;;;;;;5104884;28;20024;-47
2024/02/21 06:24:25;;;;;;;4.60;0.90;;;9.40;99.90;;;;;;5105765;28;20083;-46
2024/02/21 06:26:51;;;;;;;3.90;0.90;;;9.30;99.90;;;;;;5105115;28;20032;-46
2024/02/21 06:29:17;;;;;;;6.20;1.40;;;9.40;99.90;;;;;;5105083;28;20093;-45
2024/02/21 06:31:42;;;;;;;1.55;0.80;;;9.30;99.90;;;;;;5105409;28;20020;-48
2024/02/21 06:34:08;;;;;;;5.20;1.00;;;9.40;99.90;;;;;;5105299;28;20055;-46
2024/02/21 06:36:33;;;;;;;2.80;1.35;;;9.40;99.90;;;;;;5108813;28;20028;-45
2024/02/21 06:38:59;;;;;;;4.53;0.90;;;9.40;99.90;;;;;;5108648;28;20035;-46
2024/02/21 06:41:25;;;;;;;5.43;1.05;;;9.40;99.90;;;;;;5109122;28;20308;-46
2024/02/21 06:43:51;;;;;;;1.27;0.63;;;9.40;99.90;;;;;;5108965;28;20020;-46
2024/02/21 06:46:26;;;;;;;1.10;0.52;;;9.50;99.90;;;;;;5108820;28;20028;-47
2024/02/21 06:48:52;;;;;;;2.25;0.80;;;9.40;99.90;;;;;;5108430;28;20031;-47
2024/02/21 06:51:18;;;;;;;6.20;1.10;;;9.50;99.90;;;;;;5108529;28;20043;-46
2024/02/21 06:53:43;;;;;;;3.65;0.75;;;9.50;99.90;;;;;;5108184;28;20034;-47
2024/02/21 06:56:10;;;;;;;4.80;1.42;;;9.50;99.90;;;;;;5108691;28;20039;-46
2024/02/21 06:58:36;;;;;;;4.97;0.90;;;9.40;99.90;;;;;;5108553;28;20089;-46
2024/02/21 07:01:01;;;;;;;3.65;1.00;;;9.50;99.90;;;;;;5107658;28;20270;-47
2024/02/21 07:03:27;;;;;;;1.90;0.90;;;9.50;99.90;;;;;;5107638;28;20241;-47
2024/02/21 07:05:53;;;;;;;5.78;1.05;;;9.40;99.90;;;;;;5108307;28;20181;-47
2024/02/21 07:08:18;;;;;;;3.95;1.17;;;9.50;99.90;;;;;;5108503;28;20036;-46
2024/02/21 07:10:44;;;;;;;1.38;0.70;;;9.50;99.90;;;;;;5108439;28;20043;-45
2024/02/21 07:13:10;;;;;;;4.32;1.25;;;9.50;99.90;;;;;;5108205;28;20047;-47
2024/02/21 07:15:36;;;;;;;2.50;0.75;;;9.50;99.90;;;;;;5108170;28;20028;-45
2024/02/21 07:18:02;;;;;;;4.50;0.88;;;9.50;99.90;;;;;;5108168;28;20193;-47
2024/02/21 07:20:28;;;;;;;4.55;1.10;;;9.50;99.90;;;;;;5108138;28;20044;-46
2024/02/21 07:22:54;;;;;;;3.90;1.00;;;9.50;99.90;;;;;;5107690;28;20409;-45
2024/02/21 07:25:20;;;;;;;3.17;0.80;;;9.50;99.90;;;;;;5107817;28;20048;-46
2024/02/21 07:27:46;;;;;;;6.10;1.05;;;9.50;99.90;;;;;;5107971;28;20054;-47
2024/02/21 07:30:12;;;;;;;3.17;0.80;;;9.50;99.90;;;;;;5107611;28;20063;-46
2024/02/21 07:32:38;;;;;;;0.75;0.70;;;9.50;99.90;;;;;;5107895;28;20091;-47
2024/02/21 07:35:05;;;;;;;2.90;0.77;;;9.50;99.90;;;;;;5107839;28;20040;-46
2024/02/21 07:37:31;;;;;;;3.97;0.75;;;9.60;99.90;;;;;;5107725;28;20047;-45
2024/02/21 07:39:56;;;;;;;4.57;1.00;;;9.60;99.90;;;;;;5107829;28;20031;-46
2024/02/21 07:42:22;;;;;;;2.63;1.00;;;9.60;99.90;;;;;;5107632;28;20031;-47
2024/02/21 07:44:48;;;;;;;5.70;1.20;;;9.60;99.90;;;;;;5107622;28;20091;-47
2024/02/21 07:47:13;;;;;;;3.97;0.93;;;9.60;99.90;;;;;;5106875;28;20028;-45
2024/02/21 07:49:45;;;;;;;1.80;0.98;;;9.70;99.90;;;;;;5107516;28;20032;-45
2024/02/21 07:52:11;;;;;;;3.58;0.85;;;9.70;99.90;;;;;;5089736;28;20032;-46
2024/02/21 07:54:37;;;;;;;5.30;1.00;;;9.70;99.90;;;;;;5107484;28;20151;-46
2024/02/21 07:57:03;;;;;;;3.70;0.85;;;9.70;99.90;;;;;;5107376;28;20050;-46
2024/02/21 07:59:29;;;;;;;5.65;0.90;;;9.70;99.90;;;;;;5107310;28;20047;-49
2024/02/21 08:01:58;;;;;;;4.82;0.88;;;9.70;99.90;;;;;;5106942;28;20024;-46
2024/02/21 08:04:24;;;;;;;4.97;1.05;;;9.70;99.90;;;;;;5107244;28;20091;-49
2024/02/21 08:06:56;;;;;;;3.92;1.45;;;9.70;99.90;;;;;;5106946;28;20051;-46
2024/02/21 08:09:24;;;;;;;6.15;1.20;;;9.70;99.90;;;;;;5107067;28;20277;-46
2024/02/21 08:11:50;;;;;;;3.92;1.02;;;9.70;99.90;;;;;;5107012;28;20035;-46
2024/02/21 08:14:16;;;;;;;3.22;0.90;;;9.70;99.90;;;;;;5106918;28;20039;-45
2024/02/21 08:16:42;;;;;;;3.45;0.90;;;9.70;99.90;;;;;;5107127;28;20039;-47
2024/02/21 08:19:08;;;;;;;1.33;0.60;;;9.70;99.90;;;;;;5107025;28;20113;-45
2024/02/21 08:21:34;;;;;;;2.42;0.80;;;9.80;99.90;;;;;;5107059;28;20032;-47
2024/02/21 08:24:00;;;;;;;0.98;0.80;;;9.80;99.90;;;;;;5106693;28;20051;-45
2024/02/21 08:26:28;;;;;;;2.67;0.95;;;9.80;99.90;;;;;;5106520;28;20090;-46
2024/02/21 08:28:53;;;;;;;2.53;0.90;;;9.80;99.90;;;;;;5106685;28;20023;-47
2024/02/21 08:31:20;;;;;;;4.10;1.00;;;9.80;99.90;;;;;;5106759;28;20055;-47
2024/02/21 08:33:45;;;;;;;3.90;0.80;;;9.80;99.90;;;;;;5106778;28;20039;-49
2024/02/21 08:36:19;;;;;;;3.80;0.90;;;9.80;99.90;;;;;;5106620;28;20028;-48
2024/02/21 08:38:45;;;;;;;3.65;0.70;;;9.90;99.90;;;;;;5105547;28;20232;-45
2024/02/21 08:41:11;;;;;;;2.65;1.38;;;9.90;99.90;;;;;;5106101;28;20103;-46
2024/02/21 08:43:36;;;;;;;2.72;0.95;;;9.90;99.90;;;;;;5106382;28;20031;-47
2024/02/21 08:46:02;;;;;;;2.00;0.70;;;9.90;99.90;;;;;;5105237;28;20053;-46
2024/02/21 08:48:28;;;;;;;5.10;1.00;;;9.90;99.90;;;;;;5106428;28;20090;-46
2024/02/21 08:50:54;;;;;;;4.38;0.93;;;9.90;99.90;;;;;;5106106;28;20027;-46
2024/02/21 08:53:20;;;;;;;7.53;1.17;;;10.00;99.90;;;;;;5106286;28;20223;-47
2024/02/21 08:55:45;;;;;;;4.20;1.00;;;10.00;99.90;;;;;;5106114;28;20039;-46
2024/02/21 08:58:11;;;;;;;0.85;0.70;;;10.00;99.90;;;;;;5105650;28;20021;-46
2024/02/21 09:00:37;;;;;;;4.65;0.70;;;10.00;99.90;;;;;;5106091;28;20093;-47
2024/02/21 09:03:03;;;;;;;0.82;0.70;;;10.00;99.90;;;;;;5106035;28;20036;-47
2024/02/21 09:05:29;;;;;;;0.82;0.80;;;10.00;99.90;;;;;;5105628;28;20189;-47
2024/02/21 09:07:54;;;;;;;4.30;0.70;;;10.00;99.90;;;;;;5105650;28;20020;-47
2024/02/21 09:10:20;;;;;;;1.67;0.73;;;10.00;99.90;;;;;;5106232;28;20051;-46
2024/02/21 09:12:47;;;;;;;0.55;0.50;;;10.00;99.90;;;;;;5105564;28;20023;-46
2024/02/21 09:15:13;;;;;;;0.52;0.50;;;10.00;99.90;;;;;;5088099;28;20015;-46
2024/02/21 09:17:39;;;;;;;1.85;0.60;;;10.00;99.90;;;;;;5105649;28;20077;-48
2024/02/21 09:20:06;;;;;;;2.08;0.65;;;10.00;99.90;;;;;;5105869;28;20181;-46
2024/02/21 09:22:34;;;;;;;0.65;0.50;;;10.00;99.90;;;;;;5101092;28;20068;-46
2024/02/21 09:25:00;;;;;;;2.95;0.68;;;10.10;99.90;;;;;;5085430;28;20100;-46
2024/02/21 09:27:26;;;;;;;1.38;0.88;;;10.10;99.90;;;;;;5085374;28;20092;-47
2024/02/21 09:29:51;;;;;;;1.30;0.75;;;10.10;99.90;;;;;;5085560;28;20177;-47
2024/02/21 09:32:19;;;;;;;0.52;0.50;;;10.10;99.90;;;;;;5085563;28;20186;-48
2024/02/21 09:34:45;;;;;;;0.85;0.70;;;10.10;99.90;;;;;;5085242;28;20039;-49
2024/02/21 09:37:10;;;;;;;2.25;0.60;;;10.20;99.90;;;;;;5085304;28;20032;-46
2024/02/21 09:39:36;;;;;;;1.42;0.73;;;10.20;99.90;;;;;;5084762;28;20074;-46
2024/02/21 09:42:08;;;;;;;1.05;0.70;;;10.20;99.90;;;;;;5085261;28;20095;-46
2024/02/21 09:44:37;;;;;;;1.92;0.50;;;10.20;99.90;;;;;;5101065;28;20078;-47
2024/02/21 09:47:04;;;;;;;5.60;0.80;;;10.20;99.90;;;;;;5085281;28;20086;-49
2024/02/21 09:49:33;;;;;;;2.10;0.60;;;10.20;99.90;;;;;;5084676;28;20531;-47
2024/02/21 09:52:02;;;;;;;1.10;0.50;;;10.30;99.90;;;;;;5085064;28;20032;-46
2024/02/21 09:54:30;;;;;;;0.40;0.40;;;10.30;99.90;;;;;;5101028;28;20101;-48
2024/02/21 09:56:55;;;;;;;0.60;0.60;;;10.30;99.90;;;;;;5084698;28;20029;-47
2024/02/21 09:59:21;;;;;;;0.75;0.50;;;10.30;99.90;;;;;;5085212;28;20174;-49
2024/02/21 10:01:47;;;;;;;1.27;0.50;;;10.30;99.90;;;;;;5101133;28;20179;-47
2024/02/21 10:04:13;;;;;;;1.70;0.60;;;10.30;99.90;;;;;;5085109;28;20038;-48
2024/02/21 10:06:39;;;;;;;4.65;1.00;;;10.30;99.90;;;;;;5085146;28;20081;-47
2024/02/21 10:09:06;;;;;;;4.85;0.85;;;10.30;99.90;;;;;;5084255;28;20039;-49
2024/02/21 10:11:34;;;;;;;4.40;0.82;;;10.30;99.90;;;;;;5088198;28;20035;-49
2024/02/21 10:14:07;;;;;;;2.30;0.77;;;10.40;99.90;;;;;;5088686;28;20028;-47
2024/02/21 10:16:33;;;;;;;5.65;0.88;;;10.60;99.90;;;;;;5088970;28;20032;-49
2024/02/21 10:18:59;;;;;;;5.70;1.05;;;10.60;99.90;;;;;;5088800;28;20174;-50
2024/02/21 10:21:24;;;;;;;5.85;0.82;;;10.70;99.90;;;;;;5104915;28;20028;-48
2024/02/21 10:23:50;;;;;;;6.63;1.60;;;10.70;99.90;;;;;;5105712;28;20123;-47
2024/02/21 10:26:17;;;;;;;3.10;0.73;;;10.80;99.90;;;;;;5108672;28;20035;-48
2024/02/21 10:28:44;;;;;;;2.97;0.90;;;10.80;99.90;;;;;;5109136;28;20027;-49
2024/02/21 10:31:11;;;;;;;9.65;1.08;;;10.90;99.90;;;;;;5108914;28;20032;-45
2024/02/21 10:33:37;;;;;;;8.82;1.10;;;10.90;99.90;;;;;;5109015;28;20024;-50
2024/02/21 10:36:10;;;;;;;5.95;1.10;;;11.00;99.90;;;;;;5109048;28;20166;-47
2024/02/21 10:38:38;;;;;;;8.68;1.80;;;11.10;99.90;;;;;;5108779;28;20104;-49
2024/02/21 10:41:07;;;;;;;2.60;0.85;;;11.10;99.90;;;;;;5108677;28;20137;-47
2024/02/21 10:43:42;;;;;;;3.72;0.80;;;11.20;99.90;;;;;;5107400;28;20190;-50
2024/02/21 10:46:12;;;;;;;4.32;0.90;;;11.20;99.90;;;;;;5107729;28;20032;-46
2024/02/21 10:48:44;;;;;;;4.82;1.10;;;11.20;99.90;;;;;;5108297;28;20319;-49
2024/02/21 10:51:20;;;;;;;4.43;0.80;;;11.20;99.90;;;;;;5108340;28;20078;-45
2024/02/21 10:54:23;;;;;;;2.15;0.90;;;11.20;99.90;;;;;;5108802;28;20286;-46
2024/02/21 10:56:49;;;;;;;6.85;1.55;;;11.20;99.90;;;;;;5108568;28;20032;-48
2024/02/21 10:59:15;;;;;;;5.20;1.17;;;11.30;99.90;;;;;;5107776;28;20028;-47
2024/02/21 11:01:40;;;;;;;6.55;1.52;;;11.30;99.90;;;;;;5090640;28;20027;-47
2024/02/21 11:04:12;;;;;;;7.32;1.10;;;11.30;99.90;;;;;;5108309;28;20219;-46
2024/02/21 11:06:40;;;;;;;8.95;1.42;;;11.40;99.90;;;;;;5107289;28;20036;-48
2024/02/21 11:09:07;;;;;;;4.30;1.38;;;11.40;99.90;;;;;;5090407;28;20024;-48
2024/02/21 11:11:43;;;;;;;21.60;11.52;;;11.40;99.90;;;;;;5107770;28;20159;-46
2024/02/21 11:14:18;;;;;;;16.20;7.35;;;11.40;99.90;;;;;;5091563;28;20024;-48
2024/02/21 11:16:44;;;;;;;26.77;12.18;;;11.50;99.90;;;;;;5107597;28;20036;-47
2024/02/21 11:19:22;;;;;;;23.08;9.82;;;11.50;99.90;;;;;;5108117;28;20052;-50
2024/02/21 11:21:47;;;;;;;9.75;2.38;;;11.50;99.90;;;;;;5106035;28;20040;-49
2024/02/21 11:24:13;;;;;;;19.27;7.43;;;11.60;99.90;;;;;;5107472;28;20104;-50
2024/02/21 11:26:41;;;;;;;14.13;7.10;;;11.50;99.90;;;;;;5107737;28;20064;-50
2024/02/21 11:29:09;;;;;;;18.90;4.15;;;11.50;99.90;;;;;;5107854;28;20285;-49
2024/02/21 11:31:45;;;;;;;16.67;4.05;;;11.50;99.90;;;;;;5107922;28;20042;-50
2024/02/21 11:34:11;;;;;;;18.20;3.38;;;11.50;99.90;;;;;;5106565;28;20077;-47
2024/02/21 11:36:49;;;;;;;21.08;3.42;;;11.50;99.90;;;;;;5106739;28;20032;-47
2024/02/21 11:39:33;;;;;;;27.00;5.93;;;11.50;99.90;;;;;;5107592;28;20023;-48
2024/02/21 11:42:07;;;;;;;30.77;7.50;;;11.50;99.90;;;;;;5108011;28;20032;-47
2024/02/21 11:44:33;;;;;;;22.20;10.00;;;11.50;99.90;;;;;;5108107;28;20043;-46
2024/02/21 11:46:59;;;;;;;28.85;9.10;;;11.50;99.90;;;;;;5107167;28;20343;-49
2024/02/21 11:49:26;;;;;;;31.90;6.20;;;11.50;99.90;;;;;;5106452;28;20024;-47
2024/02/21 11:52:03;;;;;;;28.00;7.05;;;11.50;99.90;;;;;;5107384;28;20046;-47
2024/02/21 11:54:32;;;;;;;37.88;8.25;;;11.50;99.90;;;;;;5107213;28;20316;-48
2024/02/21 11:56:58;;;;;;;45.03;5.72;;;11.50;99.90;;;;;;5107161;28;20040;-50
2024/02/21 11:59:23;;;;;;;18.08;3.78;;;11.50;99.90;;;;;;5107433;28;20073;-47
2024/02/21 12:01:51;;;;;;;28.88;6.45;;;11.50;99.90;;;;;;5106884;28;20085;-49
2024/02/21 12:04:19;;;;;;;39.10;12.88;;;11.50;99.90;;;;;;5106673;28;20032;-50
2024/02/21 12:06:45;;;;;;;30.85;6.03;;;11.50;99.90;;;;;;5089157;28;20092;-49
2024/02/21 12:09:17;;;;;;;37.80;7.05;;;11.50;99.90;;;;;;5106965;28;20032;-46
2024/02/21 12:11:43;;;;;;;41.15;7.60;;;11.60;99.90;;;;;;5106850;28;20035;-49
2024/02/21 12:14:09;;;;;;;34.35;6.40;;;11.60;99.90;;;;;;5107271;28;20278;-50
2024/02/21 12:16:36;;;;;;;46.03;5.95;;;11.60;99.90;;;;;;5106762;28;20083;-47
2024/02/21 12:19:03;;;;;;;36.35;5.90;;;11.60;99.90;;;;;;5106573;28;20032;-48
2024/02/21 12:21:38;;;;;;;20.17;3.70;;;11.60;99.90;;;;;;5106185;28;20278;-48
2024/02/21 12:24:23;;;;;;;44.47;4.90;;;11.70;99.90;;;;;;5101246;28;20127;-47
2024/02/21 12:26:54;;;;;;;37.45;5.28;;;11.70;99.90;;;;;;5085967;28;20323;-49
2024/02/21 12:29:26;;;;;;;31.60;5.05;;;11.70;99.90;;;;;;5084941;28;20025;-47
2024/02/21 12:31:53;;;;;;;49.55;7.45;;;11.80;99.90;;;;;;5085458;28;20254;-46
2024/02/21 12:34:19;;;;;;;36.75;5.03;;;11.90;99.90;;;;;;5085832;28;20194;-46
2024/02/21 12:36:48;;;;;;;44.85;5.97;;;11.90;99.90;;;;;;5085834;28;20036;-48
2024/02/21 12:39:13;;;;;;;41.65;6.22;;;12.00;99.90;;;;;;5085901;28;20235;-47
2024/02/21 12:41:40;;;;;;;33.00;5.40;;;12.10;99.90;;;;;;5085578;28;20032;-47
2024/02/21 12:44:10;;;;;;;38.95;5.63;;;12.20;99.90;;;;;;5086000;28;20032;-50
2024/02/21 12:46:36;;;;;;;35.05;5.30;;;12.20;99.90;;;;;;5085483;28;20078;-49
2024/02/21 12:49:02;;;;;;;56.00;17.55;;;12.20;99.90;;;;;;5085754;28;20020;-49